| time (UTC) | temp C | wind direction | speed KPH | gust KPH | rain 1hr cm | rain 24hr cm | rain mn cm | humidity % | barometer mb |
| 20260510220040 | 13 | 148 | 0.0 | 0.0 | 0.00 | 0.41 | 0.00 | 94 | 1004.2 |
| 20260510214531 | 13 | 148 | 0.0 | 0.0 | 0.00 | 0.41 | 0.41 | 94 | 1004.2 |
| 20260510213030 | 13 | 148 | 0.0 | 0.0 | 0.00 | 0.41 | 0.41 | 93 | 1004.4 |
| 20260510211529 | 14 | 148 | 0.0 | 0.0 | 0.03 | 0.41 | 0.41 | 93 | 1004.6 |
| 20260510210034 | 14 | 148 | 0.0 | 0.0 | 0.08 | 0.41 | 0.41 | 93 | 1004.6 |
| 20260510204533 | 14 | 148 | 0.0 | 0.0 | 0.10 | 0.41 | 0.41 | 93 | 1004.7 |
| 20260510203037 | 14 | 166 | 0.0 | 0.0 | 0.10 | 0.41 | 0.41 | 92 | 1004.9 |
| 20260510201526 | 14 | 250 | 0.0 | 0.0 | 0.08 | 0.38 | 0.38 | 92 | 1005.1 |
| 20260510200027 | 14 | 163 | 0.0 | 0.0 | 0.03 | 0.33 | 0.33 | 92 | 1005.0 |
| 20260510194526 | 14 | 163 | 0.0 | 0.0 | 0.03 | 0.30 | 0.30 | 91 | 1004.9 |
| 20260510193025 | 14 | 162 | 0.0 | 0.0 | 0.08 | 0.30 | 0.30 | 91 | 1004.9 |
| 20260510191525 | 14 | 137 | 0.0 | 6.4 | 0.30 | 0.30 | 0.30 | 91 | 1004.7 |
| 20260510190031 | 14 | 211 | 0.0 | 12.9 | 0.30 | 0.30 | 0.30 | 89 | 1004.4 |
| 20260510184524 | 15 | 288 | 0.0 | 11.3 | 0.28 | 0.28 | 0.28 | 85 | 1004.2 |
| 20260510183034 | 16 | 239 | 1.6 | 19.3 | 0.23 | 0.23 | 0.23 | 77 | 1004.4 |
| 20260510181521 | 18 | 264 | 4.8 | 16.1 | 0.00 | 0.00 | 0.00 | 63 | 1004.0 |
| 20260510180028 | 21 | 251 | 1.6 | 12.9 | 0.00 | 0.00 | 0.00 | 53 | 1003.1 |
| 20260510174519 | 21 | 100 | 0.0 | 0.0 | 0.00 | 0.00 | 0.00 | 52 | 1002.8 |
| 20260510173018 | 21 | 98 | 0.0 | 0.0 | 0.00 | 0.00 | 0.00 | 47 | 1002.9 |
| 20260510171518 | 22 | 101 | 0.0 | 3.2 | 0.00 | 0.00 | 0.00 | 45 | 1002.9 |
| 20260510170017 | 22 | 105 | 0.0 | 3.2 | 0.00 | 0.00 | 0.00 | 44 | 1002.9 |
| 20260510164529 | 22 | 76 | 0.0 | 17.7 | 0.00 | 0.00 | 0.00 | 44 | 1003.0 |
| 20260510163019 | 22 | 115 | 8.0 | 20.9 | 0.00 | 0.00 | 0.00 | 42 | 1003.2 |
| 20260510161514 | 22 | 120 | 0.0 | 12.9 | 0.00 | 0.00 | 0.00 | 44 | 1003.3 |
| 20260510160013 | 23 | 125 | 1.6 | 16.1 | 0.00 | 0.00 | 0.00 | 43 | 1003.4 |
| 20260510154510 | 23 | 82 | 12.9 | 30.6 | 0.00 | 0.00 | 0.00 | 42 | 1003.6 |
| 20260510153006 | 23 | 92 | 9.7 | 32.2 | 0.00 | 0.00 | 0.00 | 42 | 1003.8 |
| 20260510151505 | 23 | 106 | 0.0 | 27.4 | 0.00 | 0.00 | 0.00 | 42 | 1004.0 |
| 20260510150002 | 23 | 130 | 9.7 | 29.0 | 0.00 | 0.00 | 0.00 | 41 | 1004.2 |
| 20260510144502 | 23 | 100 | 0.0 | 20.9 | 0.00 | 0.00 | 0.00 | 42 | 1004.4 |
| 20260510143058 | 23 | 110 | 1.6 | 20.9 | 0.00 | 0.00 | 0.00 | 41 | 1004.4 |
| 20260510141557 | 23 | 120 | 4.8 | 19.3 | 0.00 | 0.00 | 0.00 | 41 | 1004.6 |
| 20260510140056 | 23 | 113 | 0.0 | 14.5 | 0.00 | 0.00 | 0.00 | 41 | 1004.7 |
| 20260510134554 | 23 | 60 | 0.0 | 29.0 | 0.00 | 0.00 | 0.00 | 41 | 1004.9 |
| 20260510133058 | 23 | 96 | 8.0 | 30.6 | 0.00 | 0.00 | 0.00 | 40 | 1005.1 |
| 20260510131557 | 24 | 114 | 8.0 | 32.2 | 0.00 | 0.00 | 0.00 | 39 | 1005.2 |
| 20260510130050 | 24 | 166 | 4.8 | 27.4 | 0.00 | 0.00 | 0.00 | 39 | 1005.2 |
| 20260510124607 | 24 | 111 | 12.9 | 41.8 | 0.00 | 0.00 | 0.00 | 38 | 1005.5 |
| 20260510123046 | 23 | 63 | 8.0 | 20.9 | 0.00 | 0.00 | 0.00 | 41 | 1005.6 |
| 20260510121543 | 24 | 90 | 6.4 | 32.2 | 0.00 | 0.00 | 0.00 | 41 | 1005.8 |
| 20260510120042 | 23 | 111 | 9.7 | 32.2 | 0.00 | 0.00 | 0.00 | 41 | 1006.0 |
| 20260510114543 | 23 | 112 | 9.7 | 37.0 | 0.00 | 0.00 | 0.00 | 39 | 1006.2 |
| 20260510113037 | 23 | 127 | 8.0 | 24.1 | 0.00 | 0.00 | 0.00 | 40 | 1006.3 |
| 20260510111558 | 23 | 88 | 0.0 | 29.0 | 0.00 | 0.00 | 0.00 | 43 | 1006.4 |
| 20260510110032 | 23 | 148 | 4.8 | 35.4 | 0.00 | 0.00 | 0.00 | 42 | 1006.6 |
| 20260510104539 | 23 | 74 | 8.0 | 24.1 | 0.00 | 0.00 | 0.00 | 42 | 1006.8 |
| 20260510103034 | 23 | 118 | 3.2 | 30.6 | 0.00 | 0.00 | 0.00 | 42 | 1007.1 |
| 20260510101522 | 22 | 117 | 9.7 | 22.5 | 0.00 | 0.00 | 0.00 | 42 | 1007.3 |
| 20260510100019 | 21 | 95 | 6.4 | 17.7 | 0.00 | 0.00 | 0.00 | 44 | 1007.5 |
| 20260510094516 | 22 | 94 | 1.6 | 24.1 | 0.00 | 0.00 | 0.00 | 47 | 1007.7 |
| 20260510093015 | 21 | 53 | 12.9 | 35.4 | 0.00 | 0.00 | 0.00 | 49 | 1007.8 |
| 20260510091520 | 21 | 65 | 12.9 | 29.0 | 0.00 | 0.00 | 0.00 | 50 | 1007.9 |
| 20260510090012 | 21 | 108 | 4.8 | 17.7 | 0.00 | 0.00 | 0.00 | 52 | 1008.1 |
| 20260510084506 | 21 | 105 | 8.0 | 22.5 | 0.00 | 0.00 | 0.00 | 53 | 1008.1 |
| 20260510083004 | 21 | 123 | 1.6 | 9.7 | 0.00 | 0.00 | 0.00 | 55 | 1008.2 |
| 20260510081601 | 20 | 24 | 0.0 | 0.0 | 0.00 | 0.00 | 0.00 | 60 | 1008.3 |
| 20260510080103 | 19 | 324 | 0.0 | 0.0 | 0.00 | 0.00 | 0.00 | 64 | 1008.4 |
| 20260510074556 | 19 | 322 | 0.0 | 0.0 | 0.00 | 0.00 | 0.00 | 61 | 1008.6 |
| 20260510073052 | 18 | 318 | 0.0 | 0.0 | 0.00 | 0.00 | 0.00 | 63 | 1008.8 |
| 20260510071547 | 17 | 312 | 0.0 | 0.0 | 0.00 | 0.00 | 0.00 | 67 | 1008.9 |
| 20260510070048 | 17 | 310 | 0.0 | 0.0 | 0.00 | 0.00 | 0.00 | 69 | 1009.0 |
| 20260510064557 | 16 | 310 | 0.0 | 0.0 | 0.00 | 0.00 | 0.00 | 73 | 1009.1 |
| 20260510063044 | 15 | 310 | 0.0 | 0.0 | 0.00 | 0.00 | 0.00 | 73 | 1009.1 |
| 20260510061545 | 15 | 310 | 0.0 | 0.0 | 0.00 | 0.00 | 0.00 | 75 | 1009.1 |
| 20260510060038 | 12 | 310 | 0.0 | 0.0 | 0.00 | 0.00 | 0.00 | 82 | 1009.2 |
| 20260510054530 | 11 | 310 | 0.0 | 0.0 | 0.00 | 0.00 | 0.00 | 87 | 1009.3 |
| 20260510053027 | 10 | 310 | 0.0 | 0.0 | 0.00 | 0.00 | 0.00 | 89 | 1009.4 |
| 20260510051525 | 9 | 310 | 0.0 | 0.0 | 0.00 | 0.00 | 0.00 | 90 | 1009.3 |
| 20260510050021 | 8 | 310 | 0.0 | 0.0 | 0.00 | 0.00 | 0.00 | 91 | 1009.4 |
| 20260510044518 | 8 | 310 | 0.0 | 0.0 | 0.00 | 0.00 | 0.00 | 91 | 1009.5 |
| 20260510043016 | 8 | 310 | 0.0 | 0.0 | 0.00 | 0.00 | 0.00 | 92 | 1009.7 |
| 20260510041514 | 7 | 310 | 0.0 | 0.0 | 0.00 | 0.00 | 0.00 | 91 | 1009.8 |
| 20260510040010 | 8 | 310 | 0.0 | 0.0 | 0.00 | 0.00 | 0.00 | 91 | 1009.8 |
| 20260510034509 | 8 | 310 | 0.0 | 0.0 | 0.00 | 0.00 | 0.00 | 91 | 1009.8 |
| 20260510033011 | 7 | 310 | 0.0 | 0.0 | 0.00 | 0.00 | 0.00 | 91 | 1009.8 |
| 20260510031506 | 8 | 310 | 0.0 | 0.0 | 0.00 | 0.00 | 0.00 | 91 | 1009.8 |
| 20260510030005 | 8 | 310 | 0.0 | 0.0 | 0.00 | 0.00 | 0.00 | 91 | 1009.8 |
| 20260510024504 | 8 | 310 | 0.0 | 0.0 | 0.00 | 0.00 | 0.00 | 90 | 1009.9 |
| 20260510023100 | 8 | 310 | 0.0 | 0.0 | 0.00 | 0.00 | 0.00 | 89 | 1010.0 |
| 20260510021559 | 9 | 310 | 0.0 | 0.0 | 0.00 | 0.00 | 0.00 | 89 | 1010.1 |
| 20260510020058 | 9 | 310 | 0.0 | 0.0 | 0.00 | 0.00 | 0.00 | 88 | 1010.2 |
| 20260510014556 | 10 | 310 | 0.0 | 0.0 | 0.00 | 0.00 | 0.00 | 88 | 1010.3 |
| 20260510013055 | 10 | 310 | 0.0 | 0.0 | 0.00 | 0.00 | 0.00 | 87 | 1010.4 |
| 20260510011551 | 10 | 310 | 0.0 | 0.0 | 0.00 | 0.00 | 0.00 | 87 | 1010.5 |
| 20260510010049 | 10 | 310 | 0.0 | 0.0 | 0.00 | 0.00 | 0.00 | 87 | 1010.6 |
| 20260510004546 | 10 | 310 | 0.0 | 0.0 | 0.00 | 0.00 | 0.00 | 85 | 1010.7 |
| 20260510003053 | 11 | 308 | 0.0 | 0.0 | 0.00 | 0.00 | 0.00 | 83 | 1010.8 |
| 20260510001538 | 12 | 307 | 0.0 | 0.0 | 0.00 | 0.00 | 0.00 | 78 | 1010.9 |
| 20260510000037 | 12 | 307 | 0.0 | 0.0 | 0.00 | 0.00 | 0.00 | 78 | 1011.0 |
| 20260509234551 | 13 | 307 | 0.0 | 0.0 | 0.00 | 0.00 | 0.00 | 77 | 1011.1 |
| 20260509233042 | 13 | 341 | 0.0 | 0.0 | 0.00 | 0.00 | 0.00 | 78 | 1011.2 |
| 20260509231537 | 13 | 345 | 0.0 | 0.0 | 0.00 | 0.00 | 0.00 | 77 | 1011.3 |
| 20260509230030 | 14 | 28 | 0.0 | 0.0 | 0.00 | 0.00 | 0.00 | 73 | 1011.4 |
| 20260509224532 | 15 | 235 | 0.0 | 0.0 | 0.00 | 0.00 | 0.00 | 71 | 1011.4 |
| 20260509223032 | 15 | 234 | 0.0 | 0.0 | 0.00 | 0.00 | 0.00 | 71 | 1011.4 |
| 20260509221524 | 14 | 216 | 0.0 | 0.0 | 0.00 | 0.00 | 0.00 | 76 | 1011.5 |